• Join FlightAware (Why Join?)
  • Login
  • US Flag 
11:12AM EDT


 

Airport Tracker/Info


-or-


 

Live Flight TrackerFlight Track Log ✈ CPT8773 ✈ 18-Jul-2013 ✈ KCPR - KCOD

Flight Track Log - Related Links

Times and Time Zones

All times are in EDT time to prevent confusion due to time zone crossing. See the CPT8773 flight status page for this flight to view local times or setup timezone preferences in your user account.

Time Position Orientation Groundspeed Altitude Reporting Facility
EDT Latitude Longitude Course Direction KTS MPH feet Rate Location/Type
08:57AM 42.9208 -106.5433 308° West 107 123 7,100  Level Salt Lake Center
08:58AM 42.9339 -106.5853 293° West 125 144 12,000 540 Climbing Salt Lake Center
08:59AM 42.9553 -106.6197 310° West 125 144 8,300 -1,440 Descending Salt Lake Center
09:00AM 42.9989 -106.6117 North 136 157 9,100 600 Climbing Salt Lake Center
09:01AM 43.0904 -106.2790 308° West  Level FlightAware Approximate
09:01AM 43.0331 -106.6072 North 132 152 9,600  Level Salt Lake Center
09:02AM 43.1149 -106.3218 308° West  Level FlightAware Approximate
09:02AM 43.0708 -106.6019 North 130 150 10,100  Level Salt Lake Center
09:03AM 43.1244 -106.5928 North 151 174 10,000  Descending Denver Center
09:04AM 43.1717 -106.5847 North 165 190 10,100  Climbing Denver Center
09:05AM 43.2119 -106.5811 North 163 188 10,100  Level Denver Center
09:06AM 43.2564 -106.5919 350° North 155 178 10,100 300 Level Denver Center
09:07AM 43.2767 -106.6308 306° West 133 153 10,800 480 Climbing Denver Center
09:08AM 43.2972 -106.6703 306° West 131 151 11,100 360 Climbing Denver Center
09:09AM 43.3233 -106.7203 306° West 142 163 11,600 420 Climbing Denver Center
09:10AM 43.3456 -106.7631 306° West 143 165 12,000 180 Climbing Denver Center
09:11AM 43.3700 -106.8064 308° West 146 168 12,000  Level Denver Center
09:12AM 43.3967 -106.8600 304° West 152 175 12,000  Level Denver Center
09:13AM 43.4189 -106.9022 306° West 151 174 12,100  Climbing Denver Center
09:14AM 43.4433 -106.9494 305° West 152 175 12,100  Level Denver Center
09:15AM 43.4733 -107.0019 308° West 147 169 12,100  Level Denver Center
09:16AM 43.4972 -107.0514 304° West 151 174 12,100  Level Denver Center
09:17AM 43.5219 -107.0967 307° West 150 173 12,100 -60 Level Denver Center
09:18AM 43.5400 -107.1353 303° West 149 171 12,000 -60 Descending Salt Lake Center
09:19AM 43.5611 -107.1803 303° West 143 165 12,000  Level Salt Lake Center
09:20AM 43.5839 -107.2244 305° West 142 163 12,000  Level Salt Lake Center
09:21AM 43.6075 -107.2681 307° West 142 163 12,000  Level Salt Lake Center
09:22AM 43.6308 -107.3128 306° West 143 165 12,000  Level Salt Lake Center
09:23AM 43.6547 -107.3550 308° West 142 163 12,000  Level Salt Lake Center
09:24AM 43.6825 -107.4106 305° West 144 166 12,000  Level Salt Lake Center
09:25AM 43.7067 -107.4572 306° West 146 168 12,000  Level Salt Lake Center
09:26AM 43.7297 -107.5019 306° West 145 167 12,000  Level Salt Lake Center
09:27AM 43.7536 -107.5481 306° West 146 168 12,000  Level Salt Lake Center
09:28AM 43.7467 -107.6067 261° West 154 177 12,000  Level Salt Lake Center
09:29AM 43.7367 -107.6664 257° West 158 182 12,100  Climbing Salt Lake Center
09:30AM 43.7378 -107.7200 272° West 153 176 12,100 -60 Level Salt Lake Center
09:31AM 43.7639 -107.7586 313° West 143 165 12,000 -60 Descending Salt Lake Center
09:32AM 43.7919 -107.7989 314° West 143 165 12,000  Level Salt Lake Center
09:33AM 43.8172 -107.8414 310° West 143 165 12,000  Level Salt Lake Center
09:34AM 43.8469 -107.8933 308° West 143 165 12,000  Level Salt Lake Center
09:35AM 43.8731 -107.9356 311° West 143 165 12,000  Level Salt Lake Center
09:36AM 43.8997 -107.9781 311° West 145 167 12,000  Level Salt Lake Center
09:37AM 43.9253 -108.0217 309° West 145 167 12,000  Level Salt Lake Center
09:38AM 43.9503 -108.0642 309° West 144 166 12,000  Level Salt Lake Center
09:39AM 43.9756 -108.1075 309° West 144 166 12,000  Level Salt Lake Center
09:40AM 44.0028 -108.1506 311° West 145 167 12,000  Level Salt Lake Center
09:41AM 44.0289 -108.1942 310° West 147 169 12,100  Climbing Salt Lake Center
09:43AM 44.0556 -108.2381 310° West 147 169 12,000 -60 Descending Salt Lake Center
09:44AM 44.0872 -108.2906 310° West 148 170 12,000  Level Salt Lake Center
09:45AM 44.1136 -108.3347 310° West 148 170 12,000 -60 Level Salt Lake Center
09:46AM 44.1400 -108.3789 310° West 148 170 11,900 -420 Descending Salt Lake Center
09:47AM 44.1694 -108.4261 311° West 152 175 11,200 -720 Descending Salt Lake Center
09:48AM 44.2011 -108.4772 311° West 161 185 10,500 -660 Descending Salt Lake Center
09:49AM 44.2292 -108.5333 305° West 168 193 9,900 -300 Descending Salt Lake Center
09:50AM 44.2597 -108.5828 311° West 170 196 10,000 60 Climbing Salt Lake Center